sensor_id;sensor_type;location;lat;lon;timestamp;pressure;altitude;pressure_sealevel;temperature;humidity
19210;BME280;9738;51.654;14.238;2022-07-17T00:01:53;101438.41;;;10.86;71.33
19210;BME280;9738;51.654;14.238;2022-07-17T00:04:19;101439.78;;;10.80;72.27
19210;BME280;9738;51.654;14.238;2022-07-17T00:06:45;101436.53;;;10.77;72.91
19210;BME280;9738;51.654;14.238;2022-07-17T00:09:11;101448.44;;;10.73;72.90
19210;BME280;9738;51.654;14.238;2022-07-17T00:11:37;101447.50;;;10.63;72.95
19210;BME280;9738;51.654;14.238;2022-07-17T00:14:03;101454.44;;;10.54;73.67
19210;BME280;9738;51.654;14.238;2022-07-17T00:16:29;101451.28;;;10.49;73.95
19210;BME280;9738;51.654;14.238;2022-07-17T00:18:55;101448.19;;;10.44;73.97
19210;BME280;9738;51.654;14.238;2022-07-17T00:21:21;101448.91;;;10.35;74.84
19210;BME280;9738;51.654;14.238;2022-07-17T00:23:47;101456.72;;;10.26;75.41
19210;BME280;9738;51.654;14.238;2022-07-17T00:26:12;101451.50;;;10.25;75.72
19210;BME280;9738;51.654;14.238;2022-07-17T00:28:39;101456.72;;;10.26;76.09
19210;BME280;9738;51.654;14.238;2022-07-17T00:31:04;101457.91;;;10.34;77.06
19210;BME280;9738;51.654;14.238;2022-07-17T00:33:30;101450.09;;;10.42;76.92
19210;BME280;9738;51.654;14.238;2022-07-17T00:35:57;101461.03;;;10.50;76.51
19210;BME280;9738;51.654;14.238;2022-07-17T00:38:23;101453.72;;;10.52;76.45
19210;BME280;9738;51.654;14.238;2022-07-17T00:40:48;101464.28;;;10.53;76.24
19210;BME280;9738;51.654;14.238;2022-07-17T00:43:15;101460.06;;;10.51;75.65
19210;BME280;9738;51.654;14.238;2022-07-17T00:45:40;101446.22;;;10.46;75.25
19210;BME280;9738;51.654;14.238;2022-07-17T00:48:09;101448.53;;;10.39;75.89
19210;BME280;9738;51.654;14.238;2022-07-17T00:50:41;101452.56;;;10.34;76.13
19210;BME280;9738;51.654;14.238;2022-07-17T00:53:08;101448.56;;;10.28;76.30
19210;BME280;9738;51.654;14.238;2022-07-17T00:55:34;101456.94;;;10.23;76.59
19210;BME280;9738;51.654;14.238;2022-07-17T00:58:03;101463.72;;;10.16;77.36
19210;BME280;9738;51.654;14.238;2022-07-17T01:00:30;101461.81;;;10.07;78.13
19210;BME280;9738;51.654;14.238;2022-07-17T01:02:55;101457.81;;;10.01;78.03
19210;BME280;9738;51.654;14.238;2022-07-17T01:05:24;101459.50;;;9.91;78.19
19210;BME280;9738;51.654;14.238;2022-07-17T01:07:50;101468.84;;;9.86;78.91
19210;BME280;9738;51.654;14.238;2022-07-17T01:10:17;101461.09;;;9.83;79.17
19210;BME280;9738;51.654;14.238;2022-07-17T01:12:48;101461.31;;;9.80;79.05
19210;BME280;9738;51.654;14.238;2022-07-17T01:15:14;101463.38;;;9.76;79.85
19210;BME280;9738;51.654;14.238;2022-07-17T01:17:43;101462.78;;;9.72;79.82
19210;BME280;9738;51.654;14.238;2022-07-17T01:20:10;101468.59;;;9.66;80.12
19210;BME280;9738;51.654;14.238;2022-07-17T01:22:48;101467.63;;;9.56;79.84
19210;BME280;9738;51.654;14.238;2022-07-17T01:25:16;101465.19;;;9.53;79.82
19210;BME280;9738;51.654;14.238;2022-07-17T01:27:42;101472.94;;;9.45;80.01
19210;BME280;9738;51.654;14.238;2022-07-17T01:30:08;101476.06;;;9.39;80.21
19210;BME280;9738;51.654;14.238;2022-07-17T01:32:39;101470.50;;;9.31;80.66
19210;BME280;9738;51.654;14.238;2022-07-17T01:35:07;101467.66;;;9.21;81.54
19210;BME280;9738;51.654;14.238;2022-07-17T01:37:33;101476.25;;;9.13;82.44
19210;BME280;9738;51.654;14.238;2022-07-17T01:40:00;101481.19;;;9.07;82.42
19210;BME280;9738;51.654;14.238;2022-07-17T01:42:27;101474.50;;;9.01;83.23
19210;BME280;9738;51.654;14.238;2022-07-17T01:44:53;101470.28;;;8.99;84.08
19210;BME280;9738;51.654;14.238;2022-07-17T01:47:21;101477.63;;;8.95;84.65
19210;BME280;9738;51.654;14.238;2022-07-17T01:49:51;101469.13;;;8.90;84.55
19210;BME280;9738;51.654;14.238;2022-07-17T01:52:17;101473.22;;;8.83;84.75
19210;BME280;9738;51.654;14.238;2022-07-17T01:54:44;101480.72;;;8.78;85.61
19210;BME280;9738;51.654;14.238;2022-07-17T01:57:11;101466.06;;;8.72;85.61
19210;BME280;9738;51.654;14.238;2022-07-17T01:59:37;101470.75;;;8.69;86.11
19210;BME280;9738;51.654;14.238;2022-07-17T02:02:05;101459.72;;;8.62;85.69
19210;BME280;9738;51.654;14.238;2022-07-17T02:04:33;101468.88;;;8.58;86.11
19210;BME280;9738;51.654;14.238;2022-07-17T02:06:58;101466.56;;;8.53;86.85
19210;BME280;9738;51.654;14.238;2022-07-17T02:09:25;101466.78;;;8.50;86.97
19210;BME280;9738;51.654;14.238;2022-07-17T02:11:51;101471.25;;;8.50;87.23
19210;BME280;9738;51.654;14.238;2022-07-17T02:14:16;101471.25;;;8.50;86.79
19210;BME280;9738;51.654;14.238;2022-07-17T02:16:43;101469.69;;;8.47;86.76
19210;BME280;9738;51.654;14.238;2022-07-17T02:19:09;101465.53;;;8.43;86.58
19210;BME280;9738;51.654;14.238;2022-07-17T02:21:35;101473.53;;;8.43;86.78
19210;BME280;9738;51.654;14.238;2022-07-17T02:24:01;101466.63;;;8.41;86.83
19210;BME280;9738;51.654;14.238;2022-07-17T02:26:27;101471.94;;;8.41;87.69
19210;BME280;9738;51.654;14.238;2022-07-17T02:28:52;101475.44;;;8.41;87.64
19210;BME280;9738;51.654;14.238;2022-07-17T02:31:20;101475.53;;;8.39;87.64
19210;BME280;9738;51.654;14.238;2022-07-17T02:33:46;101472.16;;;8.37;87.64
19210;BME280;9738;51.654;14.238;2022-07-17T02:36:12;101473.22;;;8.35;87.67
19210;BME280;9738;51.654;14.238;2022-07-17T02:38:38;101465.34;;;8.33;88.02
19210;BME280;9738;51.654;14.238;2022-07-17T02:41:05;101473.41;;;8.32;88.74
19210;BME280;9738;51.654;14.238;2022-07-17T02:43:30;101469.91;;;8.31;89.46
19210;BME280;9738;51.654;14.238;2022-07-17T02:45:57;101467.38;;;8.30;89.93
19210;BME280;9738;51.654;14.238;2022-07-17T02:48:22;101469.19;;;8.29;90.88
19210;BME280;9738;51.654;14.238;2022-07-17T02:50:48;101468.53;;;8.26;91.27
19210;BME280;9738;51.654;14.238;2022-07-17T02:53:14;101481.09;;;8.24;91.08
19210;BME280;9738;51.654;14.238;2022-07-17T02:55:40;101475.78;;;8.24;91.38
19210;BME280;9738;51.654;14.238;2022-07-17T02:58:06;101476.75;;;8.23;91.06
19210;BME280;9738;51.654;14.238;2022-07-17T03:00:32;101478.44;;;8.24;90.99
19210;BME280;9738;51.654;14.238;2022-07-17T03:02:58;101481.22;;;8.22;91.03
19210;BME280;9738;51.654;14.238;2022-07-17T03:05:24;101478.69;;;8.21;90.92
19210;BME280;9738;51.654;14.238;2022-07-17T03:07:50;101486.75;;;8.19;91.11
19210;BME280;9738;51.654;14.238;2022-07-17T03:10:16;101478.88;;;8.18;91.42
19210;BME280;9738;51.654;14.238;2022-07-17T03:12:42;101487.97;;;8.15;91.10
19210;BME280;9738;51.654;14.238;2022-07-17T03:15:09;101486.34;;;8.12;90.98
19210;BME280;9738;51.654;14.238;2022-07-17T03:17:35;101480.28;;;8.10;91.41
19210;BME280;9738;51.654;14.238;2022-07-17T03:20:03;101483.06;;;8.09;91.28
19210;BME280;9738;51.654;14.238;2022-07-17T03:22:29;101489.44;;;8.06;91.59
19210;BME280;9738;51.654;14.238;2022-07-17T03:24:55;101487.63;;;8.07;91.88
19210;BME280;9738;51.654;14.238;2022-07-17T03:27:21;101493.91;;;8.06;91.92
19210;BME280;9738;51.654;14.238;2022-07-17T03:29:47;101495.72;;;8.05;91.98
19210;BME280;9738;51.654;14.238;2022-07-17T03:32:13;101495.84;;;8.04;91.99
19210;BME280;9738;51.654;14.238;2022-07-17T03:34:39;101499.56;;;8.01;91.85
19210;BME280;9738;51.654;14.238;2022-07-17T03:37:06;101496.03;;;8.01;92.22
19210;BME280;9738;51.654;14.238;2022-07-17T03:39:31;101502.22;;;8.01;92.36
19210;BME280;9738;51.654;14.238;2022-07-17T03:41:57;101508.50;;;8.00;92.46
19210;BME280;9738;51.654;14.238;2022-07-17T03:44:23;101507.53;;;8.01;92.92
19210;BME280;9738;51.654;14.238;2022-07-17T03:46:49;101501.16;;;8.04;93.40
19210;BME280;9738;51.654;14.238;2022-07-17T03:49:15;101504.69;;;8.04;93.70
19210;BME280;9738;51.654;14.238;2022-07-17T03:51:42;101507.34;;;8.04;93.85
19210;BME280;9738;51.654;14.238;2022-07-17T03:54:07;101507.97;;;8.08;94.37
19210;BME280;9738;51.654;14.238;2022-07-17T03:56:33;101508.59;;;8.11;95.09
19210;BME280;9738;51.654;14.238;2022-07-17T03:59:00;101513.72;;;8.15;95.48
19210;BME280;9738;51.654;14.238;2022-07-17T04:01:26;101510.94;;;8.16;95.68
19210;BME280;9738;51.654;14.238;2022-07-17T04:03:51;101515.06;;;8.20;95.69
19210;BME280;9738;51.654;14.238;2022-07-17T04:06:18;101513.03;;;8.24;96.40
19210;BME280;9738;51.654;14.238;2022-07-17T04:08:44;101518.66;;;8.32;98.46
19210;BME280;9738;51.654;14.238;2022-07-17T04:11:09;101519.75;;;8.42;100.00
19210;BME280;9738;51.654;14.238;2022-07-17T04:13:36;101522.25;;;8.56;100.00
19210;BME280;9738;51.654;14.238;2022-07-17T04:16:02;101523.06;;;8.70;100.00
19210;BME280;9738;51.654;14.238;2022-07-17T04:18:30;101529.94;;;8.85;100.00
19210;BME280;9738;51.654;14.238;2022-07-17T04:20:59;101535.81;;;9.01;100.00
19210;BME280;9738;51.654;14.238;2022-07-17T04:23:26;101534.31;;;9.21;100.00
19210;BME280;9738;51.654;14.238;2022-07-17T04:25:52;101526.59;;;9.40;100.00
19210;BME280;9738;51.654;14.238;2022-07-17T04:28:19;101522.41;;;9.60;100.00
19210;BME280;9738;51.654;14.238;2022-07-17T04:30:45;101537.75;;;9.81;99.29
19210;BME280;9738;51.654;14.238;2022-07-17T04:33:11;101532.88;;;9.97;98.85
19210;BME280;9738;51.654;14.238;2022-07-17T04:35:38;101539.69;;;10.12;97.54
19210;BME280;9738;51.654;14.238;2022-07-17T04:38:05;101543.72;;;10.29;96.61
19210;BME280;9738;51.654;14.238;2022-07-17T04:40:32;101546.03;;;10.45;95.87
19210;BME280;9738;51.654;14.238;2022-07-17T04:42:58;101550.13;;;10.60;95.27
19210;BME280;9738;51.654;14.238;2022-07-17T04:45:24;101545.47;;;10.73;94.40
19210;BME280;9738;51.654;14.238;2022-07-17T04:47:50;101547.84;;;10.88;92.98
19210;BME280;9738;51.654;14.238;2022-07-17T04:50:17;101543.22;;;11.01;93.08
19210;BME280;9738;51.654;14.238;2022-07-17T04:52:43;101550.94;;;11.15;92.04
19210;BME280;9738;51.654;14.238;2022-07-17T04:55:08;101551.59;;;11.28;91.82
19210;BME280;9738;51.654;14.238;2022-07-17T04:57:35;101547.91;;;11.41;91.23
19210;BME280;9738;51.654;14.238;2022-07-17T05:00:03;101558.28;;;11.55;90.78
19210;BME280;9738;51.654;14.238;2022-07-17T05:02:29;101559.19;;;11.65;90.26
19210;BME280;9738;51.654;14.238;2022-07-17T05:04:56;101555.47;;;11.77;89.71
19210;BME280;9738;51.654;14.238;2022-07-17T05:07:21;101558.22;;;11.87;88.97
19210;BME280;9738;51.654;14.238;2022-07-17T05:09:47;101561.94;;;11.96;88.25
19210;BME280;9738;51.654;14.238;2022-07-17T05:12:13;101565.38;;;12.07;86.60
19210;BME280;9738;51.654;14.238;2022-07-17T05:14:39;101561.78;;;12.18;86.50
19210;BME280;9738;51.654;14.238;2022-07-17T05:17:05;101563.50;;;12.29;85.58
19210;BME280;9738;51.654;14.238;2022-07-17T05:19:31;101558.03;;;12.40;85.48
19210;BME280;9738;51.654;14.238;2022-07-17T05:21:57;101568.41;;;12.54;85.11
19210;BME280;9738;51.654;14.238;2022-07-17T05:24:22;101572.38;;;12.60;98.50
19210;BME280;9738;51.654;14.238;2022-07-17T05:26:49;101574.91;;;12.71;87.30
19210;BME280;9738;51.654;14.238;2022-07-17T05:29:14;101573.25;;;12.80;84.38
19210;BME280;9738;51.654;14.238;2022-07-17T05:31:40;101581.31;;;12.89;83.10
19210;BME280;9738;51.654;14.238;2022-07-17T05:34:06;101577.53;;;13.02;82.14
19210;BME280;9738;51.654;14.238;2022-07-17T05:36:32;101581.50;;;13.17;81.45
19210;BME280;9738;51.654;14.238;2022-07-17T05:38:58;101580.13;;;13.32;80.55
19210;BME280;9738;51.654;14.238;2022-07-17T05:41:24;101584.78;;;13.49;79.74
19210;BME280;9738;51.654;14.238;2022-07-17T05:43:50;101573.44;;;13.65;78.25
19210;BME280;9738;51.654;14.238;2022-07-17T05:46:16;101567.88;;;13.86;77.40
19210;BME280;9738;51.654;14.238;2022-07-17T05:48:42;101571.81;;;14.01;76.81
19210;BME280;9738;51.654;14.238;2022-07-17T05:51:08;101573.44;;;14.22;75.89
19210;BME280;9738;51.654;14.238;2022-07-17T05:53:33;101581.75;;;14.38;75.48
19210;BME280;9738;51.654;14.238;2022-07-17T05:55:59;101582.41;;;14.50;73.71
19210;BME280;9738;51.654;14.238;2022-07-17T05:58:25;101575.09;;;14.70;74.22
19210;BME280;9738;51.654;14.238;2022-07-17T06:00:51;101575.34;;;14.94;72.21
19210;BME280;9738;51.654;14.238;2022-07-17T06:03:17;101583.00;;;15.17;70.67
19210;BME280;9738;51.654;14.238;2022-07-17T06:05:43;101589.97;;;15.45;69.31
19210;BME280;9738;51.654;14.238;2022-07-17T06:08:09;101579.81;;;15.75;67.83
19210;BME280;9738;51.654;14.238;2022-07-17T06:10:35;101583.91;;;16.05;67.12
19210;BME280;9738;51.654;14.238;2022-07-17T06:13:03;101582.31;;;16.28;65.01
19210;BME280;9738;51.654;14.238;2022-07-17T06:15:29;101583.25;;;16.45;64.13
19210;BME280;9738;51.654;14.238;2022-07-17T06:18:00;101582.75;;;16.75;63.41
19210;BME280;9738;51.654;14.238;2022-07-17T06:20:26;101592.91;;;16.90;61.91
19210;BME280;9738;51.654;14.238;2022-07-17T06:22:52;101589.06;;;17.00;60.28
19210;BME280;9738;51.654;14.238;2022-07-17T06:25:18;101592.47;;;17.19;61.02
19210;BME280;9738;51.654;14.238;2022-07-17T06:27:44;101589.09;;;17.49;59.83
19210;BME280;9738;51.654;14.238;2022-07-17T06:30:11;101584.22;;;17.69;58.67
19210;BME280;9738;51.654;14.238;2022-07-17T06:32:38;101583.22;;;17.78;57.44
19210;BME280;9738;51.654;14.238;2022-07-17T06:35:04;101593.16;;;17.86;56.57
19210;BME280;9738;51.654;14.238;2022-07-17T06:37:30;101593.72;;;17.81;55.75
19210;BME280;9738;51.654;14.238;2022-07-17T06:39:56;101592.84;;;17.81;55.65
19210;BME280;9738;51.654;14.238;2022-07-17T06:42:22;101597.06;;;17.92;54.82
19210;BME280;9738;51.654;14.238;2022-07-17T06:44:47;101592.31;;;17.94;54.31
19210;BME280;9738;51.654;14.238;2022-07-17T06:47:14;101600.41;;;18.10;54.84
19210;BME280;9738;51.654;14.238;2022-07-17T06:49:39;101600.03;;;18.21;54.67
19210;BME280;9738;51.654;14.238;2022-07-17T06:52:05;101609.31;;;18.19;53.69
19210;BME280;9738;51.654;14.238;2022-07-17T06:54:31;101609.19;;;18.20;53.60
19210;BME280;9738;51.654;14.238;2022-07-17T06:56:57;101601.69;;;18.30;54.17
19210;BME280;9738;51.654;14.238;2022-07-17T06:59:23;101609.81;;;18.39;53.50
19210;BME280;9738;51.654;14.238;2022-07-17T07:01:49;101609.88;;;18.61;53.01
19210;BME280;9738;51.654;14.238;2022-07-17T07:04:15;101622.94;;;18.58;53.33
19210;BME280;9738;51.654;14.238;2022-07-17T07:06:41;101615.88;;;18.41;51.52
19210;BME280;9738;51.654;14.238;2022-07-17T07:09:07;101620.94;;;18.44;52.67
19210;BME280;9738;51.654;14.238;2022-07-17T07:11:33;101610.84;;;18.29;52.32
19210;BME280;9738;51.654;14.238;2022-07-17T07:13:59;101600.72;;;18.23;52.18
19210;BME280;9738;51.654;14.238;2022-07-17T07:16:25;101606.78;;;18.25;51.61
19210;BME280;9738;51.654;14.238;2022-07-17T07:18:51;101600.69;;;18.31;52.46
19210;BME280;9738;51.654;14.238;2022-07-17T07:21:17;101607.41;;;18.44;51.91
19210;BME280;9738;51.654;14.238;2022-07-17T07:23:43;101600.63;;;18.48;51.31
19210;BME280;9738;51.654;14.238;2022-07-17T07:26:09;101608.56;;;18.49;51.24
19210;BME280;9738;51.654;14.238;2022-07-17T07:28:35;101602.97;;;18.67;52.37
19210;BME280;9738;51.654;14.238;2022-07-17T07:31:01;101598.47;;;18.82;51.35
19210;BME280;9738;51.654;14.238;2022-07-17T07:33:27;101616.28;;;18.77;50.25
19210;BME280;9738;51.654;14.238;2022-07-17T07:35:53;101607.97;;;18.78;49.17
19210;BME280;9738;51.654;14.238;2022-07-17T07:38:19;101615.56;;;18.83;50.18
19210;BME280;9738;51.654;14.238;2022-07-17T07:40:45;101611.66;;;18.85;50.20
19210;BME280;9738;51.654;14.238;2022-07-17T07:43:10;101611.00;;;18.83;49.82
19210;BME280;9738;51.654;14.238;2022-07-17T07:45:36;101605.03;;;18.88;51.09
19210;BME280;9738;51.654;14.238;2022-07-17T07:48:02;101618.00;;;19.01;49.95
19210;BME280;9738;51.654;14.238;2022-07-17T07:50:28;101611.22;;;19.05;52.50
19210;BME280;9738;51.654;14.238;2022-07-17T07:52:55;101608.97;;;19.08;50.27
19210;BME280;9738;51.654;14.238;2022-07-17T07:55:20;101606.91;;;18.87;48.81
19210;BME280;9738;51.654;14.238;2022-07-17T07:57:50;101619.53;;;18.64;49.22
19210;BME280;9738;51.654;14.238;2022-07-17T08:00:26;101617.84;;;18.55;51.11
19210;BME280;9738;51.654;14.238;2022-07-17T08:02:52;101618.50;;;18.57;51.89
19210;BME280;9738;51.654;14.238;2022-07-17T08:05:18;101620.88;;;18.60;50.74
19210;BME280;9738;51.654;14.238;2022-07-17T08:07:44;101619.66;;;18.79;51.10
19210;BME280;9738;51.654;14.238;2022-07-17T08:10:10;101622.03;;;18.74;49.18
19210;BME280;9738;51.654;14.238;2022-07-17T08:12:36;101615.41;;;18.76;52.00
19210;BME280;9738;51.654;14.238;2022-07-17T08:15:05;101605.69;;;18.98;52.00
19210;BME280;9738;51.654;14.238;2022-07-17T08:17:31;101614.56;;;19.15;51.49
19210;BME280;9738;51.654;14.238;2022-07-17T08:19:56;101615.22;;;19.17;49.89
19210;BME280;9738;51.654;14.238;2022-07-17T08:22:23;101616.25;;;19.16;50.99
19210;BME280;9738;51.654;14.238;2022-07-17T08:24:48;101615.53;;;19.22;51.51
19210;BME280;9738;51.654;14.238;2022-07-17T08:27:14;101623.94;;;19.27;51.73
19210;BME280;9738;51.654;14.238;2022-07-17T08:29:40;101618.63;;;19.34;49.87
19210;BME280;9738;51.654;14.238;2022-07-17T08:32:06;101608.72;;;19.49;49.46
19210;BME280;9738;51.654;14.238;2022-07-17T08:34:32;101612.47;;;19.71;49.42
19210;BME280;9738;51.654;14.238;2022-07-17T08:36:58;101608.28;;;19.83;50.32
19210;BME280;9738;51.654;14.238;2022-07-17T08:39:24;101611.41;;;19.95;48.77
19210;BME280;9738;51.654;14.238;2022-07-17T08:41:49;101619.50;;;19.80;48.24
19210;BME280;9738;51.654;14.238;2022-07-17T08:44:16;101618.56;;;19.73;48.01
19210;BME280;9738;51.654;14.238;2022-07-17T08:46:42;101616.72;;;19.65;49.04
19210;BME280;9738;51.654;14.238;2022-07-17T08:49:08;101621.03;;;19.60;49.26
19210;BME280;9738;51.654;14.238;2022-07-17T08:51:34;101619.03;;;19.54;50.66
19210;BME280;9738;51.654;14.238;2022-07-17T08:54:00;101628.16;;;19.53;48.94
19210;BME280;9738;51.654;14.238;2022-07-17T08:56:27;101619.75;;;19.48;48.23
19210;BME280;9738;51.654;14.238;2022-07-17T08:58:53;101609.19;;;19.53;49.62
19210;BME280;9738;51.654;14.238;2022-07-17T09:01:21;101622.34;;;19.64;49.45
19210;BME280;9738;51.654;14.238;2022-07-17T09:03:59;101614.44;;;19.77;50.47
19210;BME280;9738;51.654;14.238;2022-07-17T09:06:26;101616.59;;;19.82;48.86
19210;BME280;9738;51.654;14.238;2022-07-17T09:09:12;101617.66;;;19.95;47.59
19210;BME280;9738;51.654;14.238;2022-07-17T09:11:51;101607.75;;;20.03;47.07
19210;BME280;9738;51.654;14.238;2022-07-17T09:14:19;101609.53;;;19.95;46.74
19210;BME280;9738;51.654;14.238;2022-07-17T09:19:30;101611.16;;;19.67;49.05
19210;BME280;9738;51.654;14.238;2022-07-17T09:22:05;101623.94;;;19.50;48.74
19210;BME280;9738;51.654;14.238;2022-07-17T09:25:00;101618.16;;;19.30;48.42
19210;BME280;9738;51.654;14.238;2022-07-17T09:29:57;101626.09;;;19.09;50.42
19210;BME280;9738;51.654;14.238;2022-07-17T09:32:26;101626.31;;;18.99;49.25
19210;BME280;9738;51.654;14.238;2022-07-17T09:34:54;101619.03;;;19.00;50.14
19210;BME280;9738;51.654;14.238;2022-07-17T09:37:25;101626.81;;;19.03;50.07
19210;BME280;9738;51.654;14.238;2022-07-17T09:39:51;101617.56;;;18.89;49.73
19210;BME280;9738;51.654;14.238;2022-07-17T09:42:25;101620.06;;;18.99;50.18
19210;BME280;9738;51.654;14.238;2022-07-17T09:45:06;101619.31;;;19.36;51.12
19210;BME280;9738;51.654;14.238;2022-07-17T09:47:34;101623.59;;;19.53;49.60
19210;BME280;9738;51.654;14.238;2022-07-17T09:50:03;101625.06;;;19.64;50.27
19210;BME280;9738;51.654;14.238;2022-07-17T09:52:32;101630.72;;;19.54;46.27
19210;BME280;9738;51.654;14.238;2022-07-17T09:55:00;101641.69;;;19.53;48.91
19210;BME280;9738;51.654;14.238;2022-07-17T09:57:28;101626.13;;;19.78;47.21
19210;BME280;9738;51.654;14.238;2022-07-17T09:59:58;101626.28;;;20.14;47.96
19210;BME280;9738;51.654;14.238;2022-07-17T10:02:25;101628.13;;;20.36;46.68
19210;BME280;9738;51.654;14.238;2022-07-17T10:04:52;101624.28;;;20.75;47.48
19210;BME280;9738;51.654;14.238;2022-07-17T10:07:18;101622.25;;;21.13;45.77
19210;BME280;9738;51.654;14.238;2022-07-17T10:09:46;101625.56;;;21.30;42.82
19210;BME280;9738;51.654;14.238;2022-07-17T10:12:13;101604.28;;;21.55;43.62
19210;BME280;9738;51.654;14.238;2022-07-17T10:14:40;101614.59;;;21.88;45.00
19210;BME280;9738;51.654;14.238;2022-07-17T10:17:10;101607.63;;;22.06;42.22
19210;BME280;9738;51.654;14.238;2022-07-17T10:19:49;101604.91;;;22.06;42.51
19210;BME280;9738;51.654;14.238;2022-07-17T10:22:17;101596.22;;;22.18;41.46
19210;BME280;9738;51.654;14.238;2022-07-17T10:24:47;101599.19;;;22.23;41.63
19210;BME280;9738;51.654;14.238;2022-07-17T10:27:21;101588.16;;;22.31;42.97
19210;BME280;9738;51.654;14.238;2022-07-17T10:32:28;101592.19;;;22.42;42.42
19210;BME280;9738;51.654;14.238;2022-07-17T10:35:02;101589.94;;;22.58;41.55
19210;BME280;9738;51.654;14.238;2022-07-17T10:37:38;101581.00;;;22.71;39.37
19210;BME280;9738;51.654;14.238;2022-07-17T10:40:22;101583.81;;;22.84;40.95
19210;BME280;9738;51.654;14.238;2022-07-17T10:42:56;101590.34;;;22.97;41.28
19210;BME280;9738;51.654;14.238;2022-07-17T10:48:06;101594.59;;;23.12;41.00
19210;BME280;9738;51.654;14.238;2022-07-17T10:55:32;101591.63;;;23.07;39.68
19210;BME280;9738;51.654;14.238;2022-07-17T10:57:59;101587.00;;;23.01;40.14
19210;BME280;9738;51.654;14.238;2022-07-17T11:00:25;101587.84;;;23.02;40.82
19210;BME280;9738;51.654;14.238;2022-07-17T11:02:51;101581.31;;;22.96;39.49
19210;BME280;9738;51.654;14.238;2022-07-17T11:05:18;101573.84;;;23.11;39.45
19210;BME280;9738;51.654;14.238;2022-07-17T11:07:52;101579.72;;;23.22;39.08
19210;BME280;9738;51.654;14.238;2022-07-17T11:10:19;101575.56;;;23.52;41.93
19210;BME280;9738;51.654;14.238;2022-07-17T11:12:44;101574.31;;;23.48;38.83
19210;BME280;9738;51.654;14.238;2022-07-17T11:15:10;101578.03;;;23.27;39.00
19210;BME280;9738;51.654;14.238;2022-07-17T11:17:36;101578.69;;;23.16;38.12
19210;BME280;9738;51.654;14.238;2022-07-17T11:20:03;101580.75;;;23.07;39.64
19210;BME280;9738;51.654;14.238;2022-07-17T11:22:29;101575.72;;;23.04;40.07
19210;BME280;9738;51.654;14.238;2022-07-17T11:24:56;101566.69;;;22.97;40.28
19210;BME280;9738;51.654;14.238;2022-07-17T11:27:26;101583.84;;;22.91;41.17
19210;BME280;9738;51.654;14.238;2022-07-17T11:29:55;101573.91;;;22.77;39.23
19210;BME280;9738;51.654;14.238;2022-07-17T11:32:22;101584.78;;;22.70;39.53
19210;BME280;9738;51.654;14.238;2022-07-17T11:34:48;101581.09;;;22.43;37.88
19210;BME280;9738;51.654;14.238;2022-07-17T11:37:14;101584.81;;;22.35;40.50
19210;BME280;9738;51.654;14.238;2022-07-17T11:39:46;101581.03;;;22.30;39.65
19210;BME280;9738;51.654;14.238;2022-07-17T11:42:15;101580.31;;;22.15;40.67
19210;BME280;9738;51.654;14.238;2022-07-17T11:44:42;101581.81;;;22.24;40.14
19210;BME280;9738;51.654;14.238;2022-07-17T11:47:10;101574.72;;;22.23;39.58
19210;BME280;9738;51.654;14.238;2022-07-17T11:49:37;101573.09;;;22.35;40.48
19210;BME280;9738;51.654;14.238;2022-07-17T11:52:14;101563.56;;;22.52;40.94
19210;BME280;9738;51.654;14.238;2022-07-17T11:54:50;101564.44;;;22.59;40.26
19210;BME280;9738;51.654;14.238;2022-07-17T11:57:18;101564.47;;;22.73;40.42
19210;BME280;9738;51.654;14.238;2022-07-17T11:59:45;101556.13;;;22.81;39.45
19210;BME280;9738;51.654;14.238;2022-07-17T12:02:16;101558.72;;;23.02;40.99
19210;BME280;9738;51.654;14.238;2022-07-17T12:04:50;101555.84;;;23.24;40.28
19210;BME280;9738;51.654;14.238;2022-07-17T12:07:17;101547.44;;;23.45;39.32
19210;BME280;9738;51.654;14.238;2022-07-17T12:09:43;101556.94;;;23.62;38.79
19210;BME280;9738;51.654;14.238;2022-07-17T12:12:22;101550.84;;;23.67;39.36
19210;BME280;9738;51.654;14.238;2022-07-17T12:14:54;101553.78;;;23.65;37.13
19210;BME280;9738;51.654;14.238;2022-07-17T12:17:20;101548.09;;;23.60;38.24
19210;BME280;9738;51.654;14.238;2022-07-17T12:19:47;101544.50;;;23.60;37.80
19210;BME280;9738;51.654;14.238;2022-07-17T12:22:14;101539.06;;;23.60;38.89
19210;BME280;9738;51.654;14.238;2022-07-17T12:24:41;101550.41;;;23.77;38.18
19210;BME280;9738;51.654;14.238;2022-07-17T12:27:12;101547.06;;;23.88;37.83
19210;BME280;9738;51.654;14.238;2022-07-17T12:29:40;101548.72;;;23.95;36.74
19210;BME280;9738;51.654;14.238;2022-07-17T12:32:10;101551.88;;;23.92;37.53
19210;BME280;9738;51.654;14.238;2022-07-17T12:34:38;101547.25;;;23.93;37.92
19210;BME280;9738;51.654;14.238;2022-07-17T12:39:40;101544.56;;;23.73;38.48
19210;BME280;9738;51.654;14.238;2022-07-17T12:42:06;101542.22;;;23.77;36.91
19210;BME280;9738;51.654;14.238;2022-07-17T12:44:33;101544.94;;;23.83;37.72
19210;BME280;9738;51.654;14.238;2022-07-17T12:46:59;101543.47;;;24.00;37.76
19210;BME280;9738;51.654;14.238;2022-07-17T12:49:25;101544.47;;;24.19;36.88
19210;BME280;9738;51.654;14.238;2022-07-17T12:51:51;101544.66;;;24.24;36.49
19210;BME280;9738;51.654;14.238;2022-07-17T12:54:17;101543.41;;;24.34;36.56
19210;BME280;9738;51.654;14.238;2022-07-17T12:56:43;101541.47;;;24.41;37.71
19210;BME280;9738;51.654;14.238;2022-07-17T12:59:09;101532.69;;;24.25;36.27
19210;BME280;9738;51.654;14.238;2022-07-17T13:01:35;101527.63;;;24.29;37.28
19210;BME280;9738;51.654;14.238;2022-07-17T13:04:01;101535.59;;;24.44;37.63
19210;BME280;9738;51.654;14.238;2022-07-17T13:06:27;101536.53;;;24.69;38.15
19210;BME280;9738;51.654;14.238;2022-07-17T13:08:53;101527.81;;;24.86;37.26
19210;BME280;9738;51.654;14.238;2022-07-17T13:11:19;101535.13;;;24.92;34.92